Flasher, North Dakota
Current Conditions -  °F | °C
As of 8:35 AM on Friday 19 Dec 2014 (Local Time) from KY19 Reporting Station
Few Clouds Few Clouds  
Wind Chill: 15°   Ceiling: Unl
Heat Index: 23°   Visibility: 10mi
Dew Point: 23°   Wind: 7mph
Humidity: 100%   Direction: 180°S
Pressure: 29.95"   Gusts: NA
Location:  46.46°N, 101.23°W
Report Text: KY19 191535Z AUTO 18006KT 10SM FEW100 M05/M05 A2995 RMK AO2
Loading
Personal Weather Stations






























Interactive Weather Map New forecast layout! Learn more

10-Day Weather Forecast

Advertisements
Track Severe Weather on mobile